トロント/ピアソン の空港の天気 - METARとTAF

トロント・ピアソン国際空港 ( CYYZ / YYZ ) - カナダ オンタリオ州トロント
飛行場実況気象(Metar)
観測時間05/28 19:00 EDT (05/28 23:00 UTC)
風向・風速西 3m/s
視程10km以上
天気現象
少しの雲 雲底高度 1740m
全天の4割程度の雲 雲底高度 5490m
全天の8割程度の雲 雲底高度 7620m
気温21℃
湿度53%
気圧1011.7hPa
METARCYYZ 282300Z 26005KT 230V300 15SM FEW057 SCT180 BKN250 21/11 A2987 RMK CU2AC2CI3 SLP117 DENSITY ALT 1500FT
過去の天気等 Google飛行場航空写真 Wunderground天気予報

過去48時間のMETAR

飛行場予報(TAF)
発表時間: 5/28 16:40 EDT (5/28 20:40 UTC)
予報対象時間: 28日17時 EDT ~ 29日20時 EDT
風向・風速西 3m/s
視程10km以上
全天の4割程度の雲 雲底高度 1520m
全天の4割程度の雲 雲底高度 7320m
28日19時 EDT ~ 28日21時 EDT に徐々に
風向・風速南 4m/s
28日23時 EDT から
風向・風速東 4m/s
視程10km以上
少しの雲 雲底高度 1220m
全天の4割程度の雲 雲底高度 4270m
29日0時 EDT ~ 29日2時 EDT に徐々に
風向・風速北東 4m/s
29日11時 EDT から
風向・風速南南東 5m/s
視程10km以上
少しの雲 雲底高度 3660m
TAF CYYZ 282040Z 2821/2924 27006KT P6SM SCT050 SCT240
BECMG 2823/2901 18008KT
FM290300 09007KT P6SM FEW040 SCT140
BECMG 2904/2906 04007KT
FM291500 16010KT P6SM FEW120 RMK NXT FCST BY 290000Z